createdAt,value
2022-12-19T00:01:35.351Z,4.32
2022-12-19T00:04:08.072Z,4.10
2022-12-19T00:06:36.637Z,3.85
2022-12-19T00:09:04.050Z,4.32
2022-12-19T00:11:30.867Z,4.53
2022-12-19T00:13:58.217Z,3.88
2022-12-19T00:16:27.899Z,4.63
2022-12-19T00:18:58.351Z,3.90
2022-12-19T00:21:28.118Z,4.28
2022-12-19T00:23:55.299Z,4.18
2022-12-19T00:26:23.739Z,4.30
2022-12-19T00:28:53.190Z,3.80
2022-12-19T00:31:21.734Z,3.97
2022-12-19T00:33:49.354Z,4.30
2022-12-19T00:36:22.797Z,4.05
2022-12-19T00:38:51.548Z,3.63
2022-12-19T00:41:24.351Z,3.80
2022-12-19T00:43:58.572Z,4.28
2022-12-19T00:46:26.287Z,3.97
2022-12-19T00:48:52.855Z,3.97
2022-12-19T00:51:22.253Z,4.10
2022-12-19T00:53:50.732Z,4.25
2022-12-19T00:56:21.309Z,4.22
2022-12-19T00:58:48.938Z,4.07
2022-12-19T01:01:25.338Z,4.05
2022-12-19T01:04:26.685Z,4.25
2022-12-19T01:06:39.469Z,3.80
2022-12-19T01:09:08.973Z,4.13
2022-12-19T01:11:54.227Z,4.07
2022-12-19T01:14:23.062Z,3.80
2022-12-19T01:16:50.711Z,3.60
2022-12-19T01:19:17.366Z,3.67
2022-12-19T01:21:43.946Z,3.90
2022-12-19T01:24:11.430Z,3.95
2022-12-19T01:26:37.950Z,3.50
2022-12-19T01:29:05.299Z,3.28
2022-12-19T01:31:33.314Z,3.50
2022-12-19T01:34:01.511Z,3.75
2022-12-19T01:36:28.387Z,3.60
2022-12-19T01:38:58.381Z,3.70
2022-12-19T01:41:24.989Z,4.00
2022-12-19T01:43:57.494Z,4.03
2022-12-19T01:46:39.967Z,3.70
2022-12-19T01:49:15.159Z,4.07
2022-12-19T01:51:46.442Z,3.45
2022-12-19T01:54:25.806Z,3.72
2022-12-19T01:56:55.796Z,3.42
2022-12-19T01:59:32.161Z,3.33
2022-12-19T02:02:11.468Z,3.30
2022-12-19T02:04:39.624Z,3.50
2022-12-19T02:07:15.246Z,2.85
2022-12-19T02:09:56.561Z,3.30
2022-12-19T02:12:25.651Z,3.78
2022-12-19T02:14:54.345Z,3.50
2022-12-19T02:17:56.047Z,2.97
2022-12-19T02:21:03.966Z,2.83
2022-12-19T02:23:47.449Z,3.10
2022-12-19T02:26:29.239Z,3.22
2022-12-19T02:29:17.049Z,3.00
2022-12-19T02:31:57.301Z,3.17
2022-12-19T02:34:30.089Z,3.20
2022-12-19T02:37:05.509Z,2.80
2022-12-19T02:39:43.316Z,3.03
2022-12-19T02:42:15.127Z,2.97
2022-12-19T02:44:49.472Z,3.38
2022-12-19T02:47:17.400Z,3.17
2022-12-19T02:49:44.050Z,2.85
2022-12-19T02:52:33.512Z,2.88
2022-12-19T02:55:10.403Z,2.95
2022-12-19T02:57:46.033Z,3.30
2022-12-19T03:00:16.329Z,3.03
2022-12-19T03:03:22.482Z,3.22
2022-12-19T03:06:01.547Z,3.47
2022-12-19T03:08:31.932Z,2.90
2022-12-19T03:11:04.736Z,3.25
2022-12-19T03:13:36.360Z,2.85
2022-12-19T03:16:04.958Z,2.83
2022-12-19T03:18:33.239Z,3.22
2022-12-19T03:21:21.265Z,3.15
2022-12-19T03:23:50.820Z,3.30
2022-12-19T03:26:22.037Z,3.10
2022-12-19T03:28:57.686Z,2.83
2022-12-19T03:31:28.558Z,2.90
2022-12-19T03:33:59.389Z,2.65
2022-12-19T03:36:31.759Z,2.55
2022-12-19T03:39:02.456Z,2.97
2022-12-19T03:41:49.416Z,3.10
2022-12-19T03:44:17.205Z,2.85
2022-12-19T03:46:51.136Z,2.88
2022-12-19T03:49:18.220Z,3.10
2022-12-19T03:51:57.786Z,2.75
2022-12-19T03:54:31.124Z,3.10
2022-12-19T03:57:14.679Z,2.80
2022-12-19T04:00:02.753Z,2.67
2022-12-19T04:02:30.421Z,2.88
2022-12-19T04:05:04.195Z,3.10
2022-12-19T04:07:32.765Z,2.90
2022-12-19T04:10:02.145Z,2.83
2022-12-19T04:12:34.492Z,3.15
2022-12-19T04:15:01.591Z,2.70
2022-12-19T04:17:39.432Z,2.92
2022-12-19T04:20:11.209Z,2.50
2022-12-19T04:22:40.698Z,2.60
2022-12-19T04:25:16.099Z,2.40
2022-12-19T04:27:48.162Z,2.58
2022-12-19T04:30:20.151Z,2.80
2022-12-19T04:32:48.119Z,2.00
2022-12-19T04:35:14.729Z,2.60
2022-12-19T04:37:41.751Z,2.40
2022-12-19T04:40:10.124Z,2.53
2022-12-19T04:42:37.602Z,2.45
2022-12-19T04:45:05.816Z,2.50
2022-12-19T04:47:33.262Z,2.13
2022-12-19T04:49:59.829Z,2.75
2022-12-19T04:52:26.945Z,2.08
2022-12-19T04:54:53.495Z,2.35
2022-12-19T04:57:20.583Z,2.28
2022-12-19T04:59:47.593Z,2.42
2022-12-19T05:02:14.316Z,2.13
2022-12-19T05:04:41.377Z,2.10
2022-12-19T05:07:07.935Z,2.20
2022-12-19T05:09:34.456Z,2.20
2022-12-19T05:12:01.432Z,2.08
2022-12-19T05:14:28.019Z,1.67
2022-12-19T05:17:00.417Z,1.88
2022-12-19T05:19:28.551Z,2.13
2022-12-19T05:21:55.679Z,2.20
2022-12-19T05:24:22.270Z,1.70
2022-12-19T05:26:49.624Z,1.73
2022-12-19T05:29:17.264Z,1.85
2022-12-19T05:31:44.377Z,1.90
2022-12-19T05:34:11.634Z,1.73
2022-12-19T05:36:38.694Z,1.65
2022-12-19T05:39:05.397Z,1.80
2022-12-19T05:41:32.604Z,1.90
2022-12-19T05:43:59.171Z,1.50
2022-12-19T05:46:27.366Z,1.48
2022-12-19T05:48:54.699Z,1.65
2022-12-19T05:51:21.686Z,1.40
2022-12-19T05:53:48.812Z,1.40
2022-12-19T05:56:18.718Z,1.50
2022-12-19T05:58:46.144Z,1.90
2022-12-19T06:01:18.573Z,1.70
2022-12-19T06:03:46.280Z,1.60
2022-12-19T06:06:16.526Z,1.48
2022-12-19T06:08:43.248Z,1.63
2022-12-19T06:11:11.579Z,1.42
2022-12-19T06:13:38.894Z,1.60
2022-12-19T06:16:12.868Z,1.45
2022-12-19T06:18:44.459Z,1.40
2022-12-19T06:21:23.077Z,1.45
2022-12-19T06:23:50.324Z,1.35
2022-12-19T06:26:20.096Z,1.30
2022-12-19T06:28:49.212Z,1.20
2022-12-19T06:31:16.591Z,1.00
2022-12-19T06:33:43.245Z,1.30
2022-12-19T06:36:22.506Z,1.23
2022-12-19T06:38:49.533Z,1.08
2022-12-19T06:41:35.626Z,1.27
2022-12-19T06:44:05.368Z,1.17
2022-12-19T06:46:32.203Z,1.30
2022-12-19T06:48:59.669Z,1.30
2022-12-19T06:51:26.430Z,1.40
2022-12-19T06:53:53.685Z,1.05
2022-12-19T06:56:20.861Z,1.33
2022-12-19T06:58:48.496Z,1.50
2022-12-19T07:01:52.959Z,1.23
2022-12-19T07:04:29.089Z,1.23
2022-12-19T07:06:55.806Z,1.15
2022-12-19T07:09:23.290Z,1.20
2022-12-19T07:11:49.838Z,1.38
2022-12-19T07:14:16.357Z,1.42
2022-12-19T07:16:43.057Z,1.20
2022-12-19T07:19:10.332Z,1.20
2022-12-19T07:21:37.967Z,1.33
2022-12-19T07:24:06.030Z,1.40
2022-12-19T07:26:32.910Z,1.30
2022-12-19T07:29:00.516Z,1.20
2022-12-19T07:31:27.127Z,1.30
2022-12-19T07:33:53.702Z,1.00
2022-12-19T07:36:20.241Z,1.30
2022-12-19T07:38:46.819Z,1.33
2022-12-19T07:41:13.863Z,1.08
2022-12-19T07:43:40.880Z,1.15
2022-12-19T07:46:07.515Z,1.25
2022-12-19T07:48:34.043Z,1.00
2022-12-19T07:51:00.639Z,1.25
2022-12-19T07:53:28.147Z,1.40
2022-12-19T07:55:54.778Z,1.20
2022-12-19T07:58:21.959Z,1.10
2022-12-19T08:01:00.755Z,0.90
2022-12-19T08:03:28.411Z,1.20
2022-12-19T08:06:00.154Z,1.40
2022-12-19T08:08:27.983Z,1.30
2022-12-19T08:10:54.827Z,1.25
2022-12-19T08:13:21.462Z,1.10
2022-12-19T08:15:48.115Z,1.05
2022-12-19T08:18:15.119Z,1.00
2022-12-19T08:20:44.552Z,0.80
2022-12-19T08:23:11.058Z,1.42
2022-12-19T08:25:37.571Z,1.23
2022-12-19T08:28:04.588Z,1.23
2022-12-19T08:30:31.096Z,1.13
2022-12-19T08:32:57.667Z,1.20
2022-12-19T08:35:24.191Z,1.50
2022-12-19T08:37:51.193Z,0.90
2022-12-19T08:40:17.757Z,1.17
2022-12-19T08:42:44.257Z,1.10
2022-12-19T08:45:11.326Z,1.10
2022-12-19T08:47:37.884Z,1.35
2022-12-19T08:50:04.884Z,1.30
2022-12-19T08:52:31.399Z,1.30
2022-12-19T08:54:58.033Z,1.05
2022-12-19T08:57:24.582Z,1.20
2022-12-19T08:59:51.645Z,1.00
2022-12-19T09:02:19.239Z,1.50
2022-12-19T09:06:00.590Z,1.10
2022-12-19T09:07:34.561Z,1.10
2022-12-19T09:10:06.343Z,1.00
2022-12-19T09:12:33.348Z,1.23
2022-12-19T09:14:59.864Z,1.20
2022-12-19T09:17:26.391Z,1.13
2022-12-19T09:19:52.953Z,0.93
2022-12-19T09:22:19.464Z,1.20
2022-12-19T09:24:45.980Z,1.20
2022-12-19T09:27:12.728Z,1.00
2022-12-19T09:29:40.953Z,1.30
2022-12-19T09:32:07.514Z,1.20
2022-12-19T09:34:37.425Z,0.90
2022-12-19T09:37:15.767Z,1.20
2022-12-19T09:39:45.233Z,1.05
2022-12-19T09:42:29.894Z,1.00
2022-12-19T09:45:15.008Z,1.20
2022-12-19T09:47:49.260Z,1.10
2022-12-19T09:50:31.851Z,0.98
2022-12-19T09:53:03.840Z,1.02
2022-12-19T09:55:37.681Z,1.27
2022-12-19T09:58:18.605Z,1.30
2022-12-19T10:00:59.694Z,1.00
2022-12-19T10:03:40.450Z,1.23
2022-12-19T10:07:09.002Z,1.02
2022-12-19T10:10:01.902Z,0.77
2022-12-19T10:12:42.674Z,1.00
2022-12-19T10:15:12.414Z,1.08
2022-12-19T10:18:06.195Z,0.93
2022-12-19T10:20:35.473Z,0.80
2022-12-19T10:23:32.744Z,1.08
2022-12-19T10:26:03.937Z,0.98
2022-12-19T10:28:46.190Z,1.00
2022-12-19T10:31:24.741Z,0.98
2022-12-19T10:34:27.351Z,0.90
2022-12-19T10:37:27.585Z,0.98
2022-12-19T10:40:05.003Z,0.73
2022-12-19T10:43:28.647Z,1.08
2022-12-19T10:46:03.609Z,1.05
2022-12-19T10:48:31.525Z,1.00
2022-12-19T10:50:58.622Z,0.90
2022-12-19T10:53:32.166Z,0.73
2022-12-19T10:56:11.785Z,1.00
2022-12-19T10:58:43.321Z,0.82
2022-12-19T11:01:09.850Z,1.00
2022-12-19T11:03:37.392Z,1.17
2022-12-19T11:06:05.094Z,1.20
2022-12-19T11:08:35.077Z,1.42
2022-12-19T11:12:53.099Z,0.90
2022-12-19T11:21:12.274Z,0.85
2022-12-19T11:22:25.740Z,1.10
2022-12-19T11:29:40.286Z,1.02
2022-12-19T11:29:41.908Z,1.02
2022-12-19T11:30:45.317Z,1.13
2022-12-19T11:30:48.365Z,1.10
2022-12-19T11:32:34.025Z,0.88
2022-12-19T11:34:18.895Z,1.10
2022-12-19T11:36:55.815Z,0.82
2022-12-19T11:39:29.717Z,0.82
2022-12-19T11:42:16.018Z,0.98
2022-12-19T11:47:37.110Z,0.88
2022-12-19T11:50:13.655Z,0.93
2022-12-19T11:53:05.920Z,1.17
2022-12-19T11:55:45.174Z,0.77
2022-12-19T11:58:13.068Z,1.00
2022-12-19T12:00:54.210Z,0.90
2022-12-19T12:03:58.306Z,0.90
2022-12-19T12:06:33.980Z,0.77
2022-12-19T12:13:21.559Z,0.95
2022-12-19T12:21:57.695Z,0.70
2022-12-19T12:31:00.611Z,0.93
2022-12-19T12:31:27.902Z,0.90
2022-12-19T12:31:31.852Z,0.90
2022-12-19T12:31:45.830Z,0.80
2022-12-19T12:31:57.039Z,0.68
2022-12-19T12:35:38.053Z,0.80
2022-12-19T12:38:22.959Z,1.00
2022-12-19T12:41:13.428Z,1.08
2022-12-19T12:44:06.472Z,0.93
2022-12-19T12:46:40.336Z,0.90
2022-12-19T12:49:15.598Z,0.88
2022-12-19T12:51:42.939Z,1.10
2022-12-19T12:54:15.949Z,0.80
2022-12-19T12:56:44.529Z,1.00
2022-12-19T12:59:26.786Z,0.90
2022-12-19T13:02:00.380Z,1.00
2022-12-19T13:04:29.666Z,0.95
2022-12-19T13:07:12.851Z,1.00
2022-12-19T13:09:40.919Z,0.80
2022-12-19T13:12:38.501Z,0.95
2022-12-19T13:15:27.020Z,0.95
2022-12-19T13:17:53.556Z,0.98
2022-12-19T13:20:29.194Z,0.80
2022-12-19T13:22:58.711Z,0.88
2022-12-19T13:25:34.051Z,1.10
2022-12-19T13:28:03.623Z,0.82
2022-12-19T13:30:50.531Z,0.90
2022-12-19T13:33:19.378Z,0.60
2022-12-19T13:37:31.350Z,0.90
2022-12-19T13:39:50.088Z,0.95
2022-12-19T13:42:00.068Z,0.73
2022-12-19T13:44:26.754Z,0.85
2022-12-19T13:46:56.018Z,0.90
2022-12-19T13:49:34.261Z,0.80
2022-12-19T13:52:03.570Z,0.80
2022-12-19T13:54:51.093Z,0.82
2022-12-19T13:57:30.017Z,0.90
2022-12-19T14:00:10.445Z,0.80
2022-12-19T14:02:46.311Z,0.77
2022-12-19T14:06:17.897Z,0.85
2022-12-19T14:08:26.049Z,0.80
2022-12-19T14:11:36.661Z,0.90
2022-12-19T14:14:27.591Z,0.85
2022-12-19T14:17:06.582Z,0.75
2022-12-19T14:19:42.581Z,0.60
2022-12-19T14:22:25.976Z,0.90
2022-12-19T14:25:50.182Z,0.98
2022-12-19T14:28:20.040Z,0.80
2022-12-19T14:31:00.992Z,0.88
2022-12-19T14:33:59.093Z,0.70
2022-12-19T14:36:32.763Z,0.80
2022-12-19T14:39:19.735Z,0.68
2022-12-19T14:42:08.281Z,0.85
2022-12-19T14:53:08.410Z,0.73
2022-12-19T14:54:04.973Z,0.68
2022-12-19T14:54:14.694Z,0.90
2022-12-19T14:54:27.813Z,0.75
2022-12-19T14:59:01.680Z,0.80
2022-12-19T15:01:32.338Z,0.70
2022-12-19T15:04:51.952Z,0.90
2022-12-19T15:07:11.793Z,0.85
2022-12-19T15:11:03.467Z,0.85
2022-12-19T15:14:56.287Z,0.88
2022-12-19T15:16:29.955Z,0.70
2022-12-19T15:19:00.241Z,0.90
2022-12-19T15:21:27.948Z,0.57
2022-12-19T15:23:54.891Z,0.65
2022-12-19T15:26:34.015Z,0.80
2022-12-19T15:29:01.907Z,0.75
2022-12-19T15:31:34.763Z,0.70
2022-12-19T15:34:48.267Z,0.60
2022-12-19T15:37:15.966Z,0.60
2022-12-19T15:39:43.940Z,0.73
2022-12-19T15:42:28.849Z,0.90
2022-12-19T15:44:57.909Z,0.77
2022-12-19T15:47:32.913Z,0.88
2022-12-19T15:50:02.741Z,0.80
2022-12-19T15:52:29.973Z,0.85
2022-12-19T15:54:59.287Z,0.60
2022-12-19T15:57:36.799Z,0.75
2022-12-19T16:00:07.887Z,0.90
2022-12-19T16:03:13.444Z,0.80
2022-12-19T16:05:23.462Z,0.90
2022-12-19T16:07:50.706Z,0.80
2022-12-19T16:10:17.544Z,0.85
2022-12-19T16:12:48.189Z,0.70
2022-12-19T16:15:26.969Z,0.88
2022-12-19T16:17:55.391Z,0.75
2022-12-19T16:20:25.267Z,0.70
2022-12-19T16:22:51.892Z,0.90
2022-12-19T16:25:19.141Z,0.60
2022-12-19T16:27:53.132Z,0.90
2022-12-19T16:30:23.380Z,0.80
2022-12-19T16:32:50.747Z,0.80
2022-12-19T16:35:40.157Z,0.70
2022-12-19T16:38:07.096Z,0.70
2022-12-19T16:40:33.687Z,0.70
2022-12-19T16:43:25.484Z,0.80
2022-12-19T16:45:53.106Z,0.90
2022-12-19T16:48:26.133Z,0.73
2022-12-19T16:50:53.453Z,0.90
2022-12-19T16:53:20.053Z,0.90
2022-12-19T16:55:48.745Z,0.80
2022-12-19T16:58:21.773Z,1.00
2022-12-19T17:00:51.132Z,1.10
2022-12-19T17:03:36.811Z,0.80
2022-12-19T17:06:04.504Z,0.80
2022-12-19T17:08:32.419Z,0.80
2022-12-19T17:10:59.261Z,0.82
2022-12-19T17:13:26.399Z,0.70
2022-12-19T17:15:57.012Z,0.55
2022-12-19T17:18:27.194Z,0.90
2022-12-19T17:20:53.980Z,0.73
2022-12-19T17:23:22.495Z,0.82
2022-12-19T17:25:50.306Z,0.90
2022-12-19T17:28:17.657Z,1.05
2022-12-19T17:30:52.550Z,0.90
2022-12-19T17:33:22.148Z,1.00
2022-12-19T17:35:48.914Z,0.80
2022-12-19T17:38:17.200Z,1.08
2022-12-19T17:40:44.856Z,0.90
2022-12-19T17:43:14.732Z,0.90
2022-12-19T17:45:41.852Z,0.90
2022-12-19T17:48:26.438Z,0.90
2022-12-19T17:50:54.210Z,1.10
2022-12-19T17:53:21.128Z,0.80
2022-12-19T17:55:47.856Z,0.90
2022-12-19T17:58:14.536Z,1.00
2022-12-19T18:00:42.178Z,0.82
2022-12-19T18:03:25.155Z,1.05
2022-12-19T18:05:54.665Z,0.90
2022-12-19T18:08:25.460Z,1.10
2022-12-19T18:10:52.822Z,1.40
2022-12-19T18:13:20.497Z,1.20
2022-12-19T18:15:47.371Z,1.30
2022-12-19T18:18:15.831Z,0.93
2022-12-19T18:20:44.220Z,1.10
2022-12-19T18:23:16.833Z,1.00
2022-12-19T18:25:44.407Z,1.10
2022-12-19T18:28:11.219Z,1.40
2022-12-19T18:30:38.345Z,1.23
2022-12-19T18:33:06.806Z,1.17
2022-12-19T18:35:40.445Z,1.10
2022-12-19T18:38:12.552Z,1.02
2022-12-19T18:40:39.620Z,1.02
2022-12-19T18:43:06.427Z,1.35
2022-12-19T18:45:42.745Z,1.33
2022-12-19T18:48:18.311Z,1.13
2022-12-19T18:50:45.412Z,1.20
2022-12-19T18:53:15.729Z,1.00
2022-12-19T18:55:44.150Z,1.00
2022-12-19T18:58:10.718Z,1.08
2022-12-19T19:00:39.008Z,1.10
2022-12-19T19:03:11.976Z,1.40
2022-12-19T19:05:40.180Z,1.30
2022-12-19T19:08:15.285Z,1.20
2022-12-19T19:10:41.855Z,0.80
2022-12-19T19:13:10.392Z,1.10
2022-12-19T19:15:45.482Z,1.02
2022-12-19T19:18:12.705Z,1.10
2022-12-19T19:20:42.051Z,0.93
2022-12-19T19:23:11.815Z,1.17
2022-12-19T19:25:38.885Z,1.17
2022-12-19T19:28:06.563Z,1.00
2022-12-19T19:30:35.784Z,1.27
2022-12-19T19:33:25.806Z,1.00
2022-12-19T19:35:58.036Z,1.10
2022-12-19T19:38:25.486Z,1.10
2022-12-19T19:40:52.056Z,0.95
2022-12-19T19:43:18.599Z,0.90
2022-12-19T19:45:45.134Z,1.17
2022-12-19T19:48:11.744Z,1.00
2022-12-19T19:50:38.873Z,1.20
2022-12-19T19:53:05.492Z,1.20
2022-12-19T19:55:32.044Z,1.00
2022-12-19T19:57:59.157Z,1.08
2022-12-19T20:00:25.853Z,0.90
2022-12-19T20:02:52.638Z,0.95
2022-12-19T20:05:19.351Z,0.90
2022-12-19T20:07:45.905Z,1.00
2022-12-19T20:10:13.509Z,1.17
2022-12-19T20:12:40.185Z,0.88
2022-12-19T20:15:07.649Z,0.95
2022-12-19T20:17:34.302Z,1.05
2022-12-19T20:20:00.863Z,1.25
2022-12-19T20:22:29.200Z,1.38
2022-12-19T20:24:56.463Z,1.08
2022-12-19T20:27:23.540Z,1.15
2022-12-19T20:29:50.636Z,0.95
2022-12-19T20:32:17.429Z,1.30
2022-12-19T20:34:44.498Z,0.98
2022-12-19T20:37:11.705Z,1.13
2022-12-19T20:39:38.444Z,1.10
2022-12-19T20:42:06.496Z,1.15
2022-12-19T20:44:33.201Z,1.08
2022-12-19T20:47:00.127Z,1.20
2022-12-19T20:49:27.136Z,1.05
2022-12-19T20:51:54.502Z,0.90
2022-12-19T20:54:21.153Z,1.02
2022-12-19T20:56:48.167Z,1.00
2022-12-19T20:59:14.764Z,0.90
2022-12-19T21:01:41.465Z,1.20
2022-12-19T21:04:08.622Z,0.85
2022-12-19T21:06:37.900Z,0.90
2022-12-19T21:09:06.164Z,1.00
2022-12-19T21:11:33.626Z,1.20
2022-12-19T21:14:01.107Z,1.10
2022-12-19T21:16:27.764Z,1.00
2022-12-19T21:18:54.890Z,1.13
2022-12-19T21:21:25.008Z,0.95
2022-12-19T21:23:52.383Z,1.10
2022-12-19T21:26:19.195Z,1.10
2022-12-19T21:28:45.785Z,0.88
2022-12-19T21:31:18.343Z,1.05
2022-12-19T21:33:46.127Z,1.00
2022-12-19T21:36:19.047Z,1.23
2022-12-19T21:38:51.780Z,0.85
2022-12-19T21:41:19.386Z,1.05
2022-12-19T21:43:48.730Z,1.00
2022-12-19T21:46:16.780Z,1.00
2022-12-19T21:48:46.504Z,1.10
2022-12-19T21:51:14.923Z,1.20
2022-12-19T21:53:42.156Z,0.88
2022-12-19T21:56:34.427Z,0.93
2022-12-19T21:59:03.804Z,0.82
2022-12-19T22:01:31.480Z,1.27
2022-12-19T22:04:00.238Z,0.90
2022-12-19T22:06:30.305Z,1.00
2022-12-19T22:08:57.120Z,1.02
2022-12-19T22:11:24.467Z,1.20
2022-12-19T22:13:52.161Z,1.05
2022-12-19T22:16:19.095Z,0.93
2022-12-19T22:18:46.476Z,1.10
2022-12-19T22:21:15.091Z,0.98
2022-12-19T22:23:42.648Z,1.13
2022-12-19T22:26:15.479Z,1.00
2022-12-19T22:28:45.039Z,0.82
2022-12-19T22:31:26.937Z,0.82
2022-12-19T22:33:56.551Z,1.00
2022-12-19T22:36:28.350Z,1.10
2022-12-19T22:38:56.621Z,1.20
2022-12-19T22:41:23.560Z,0.82
2022-12-19T22:43:50.148Z,1.10
2022-12-19T22:46:20.283Z,1.00
2022-12-19T22:48:48.689Z,0.90
2022-12-19T22:51:16.403Z,1.20
2022-12-19T22:53:44.059Z,1.10
2022-12-19T22:56:19.729Z,0.90
2022-12-19T22:58:49.426Z,0.95
2022-12-19T23:01:28.682Z,1.30
2022-12-19T23:03:57.915Z,1.00
2022-12-19T23:06:27.788Z,1.00
2022-12-19T23:08:54.934Z,1.10
2022-12-19T23:11:28.151Z,0.98
2022-12-19T23:13:55.351Z,1.13
2022-12-19T23:16:22.474Z,1.10
2022-12-19T23:18:49.039Z,0.90
2022-12-19T23:21:19.295Z,1.20
2022-12-19T23:23:48.181Z,1.27
2022-12-19T23:26:20.635Z,0.93
2022-12-19T23:28:52.875Z,0.77
2022-12-19T23:31:20.344Z,0.90
2022-12-19T23:33:46.983Z,1.33
2022-12-19T23:36:14.318Z,0.88
2022-12-19T23:38:43.264Z,1.30
2022-12-19T23:41:11.739Z,1.20
2022-12-19T23:43:39.028Z,0.85
2022-12-19T23:46:11.726Z,0.93
2022-12-19T23:48:38.339Z,0.90
2022-12-19T23:51:07.305Z,0.80
2022-12-19T23:53:34.889Z,0.93
2022-12-19T23:56:05.733Z,0.90
2022-12-19T23:58:32.601Z,1.27
